sensor_id;sensor_type;location;lat;lon;timestamp;P1;durP1;ratioP1;P2;durP2;ratioP2
13356;SDS011;6747;56.456;-3.120;2024-02-21T00:00:53;9.23;;;2.45;;
13356;SDS011;6747;56.456;-3.120;2024-02-21T00:03:21;13.60;;;3.05;;
13356;SDS011;6747;56.456;-3.120;2024-02-21T00:06:07;9.00;;;2.50;;
13356;SDS011;6747;56.456;-3.120;2024-02-21T00:08:52;7.03;;;2.20;;
13356;SDS011;6747;56.456;-3.120;2024-02-21T00:11:26;12.00;;;2.88;;
13356;SDS011;6747;56.456;-3.120;2024-02-21T00:14:10;7.53;;;2.40;;
13356;SDS011;6747;56.456;-3.120;2024-02-21T00:16:41;8.80;;;2.78;;
13356;SDS011;6747;56.456;-3.120;2024-02-21T00:19:09;8.77;;;2.58;;
13356;SDS011;6747;56.456;-3.120;2024-02-21T00:21:36;10.18;;;3.42;;
13356;SDS011;6747;56.456;-3.120;2024-02-21T00:24:06;12.65;;;2.70;;
13356;SDS011;6747;56.456;-3.120;2024-02-21T00:26:33;9.75;;;2.50;;
13356;SDS011;6747;56.456;-3.120;2024-02-21T00:29:01;8.65;;;2.88;;
13356;SDS011;6747;56.456;-3.120;2024-02-21T00:31:31;9.45;;;2.88;;
13356;SDS011;6747;56.456;-3.120;2024-02-21T00:34:02;4.88;;;2.05;;
13356;SDS011;6747;56.456;-3.120;2024-02-21T00:36:30;5.05;;;1.83;;
13356;SDS011;6747;56.456;-3.120;2024-02-21T00:38:58;7.82;;;2.53;;
13356;SDS011;6747;56.456;-3.120;2024-02-21T00:41:28;8.50;;;2.55;;
13356;SDS011;6747;56.456;-3.120;2024-02-21T00:43:55;11.68;;;2.50;;
13356;SDS011;6747;56.456;-3.120;2024-02-21T00:46:23;9.43;;;2.63;;
13356;SDS011;6747;56.456;-3.120;2024-02-21T00:48:51;9.20;;;2.58;;
13356;SDS011;6747;56.456;-3.120;2024-02-21T00:51:18;12.00;;;2.83;;
13356;SDS011;6747;56.456;-3.120;2024-02-21T00:53:46;11.73;;;2.78;;
13356;SDS011;6747;56.456;-3.120;2024-02-21T00:56:13;8.02;;;2.30;;
13356;SDS011;6747;56.456;-3.120;2024-02-21T00:58:42;9.55;;;2.30;;
13356;SDS011;6747;56.456;-3.120;2024-02-21T01:01:10;8.73;;;2.50;;
13356;SDS011;6747;56.456;-3.120;2024-02-21T01:03:39;9.20;;;2.72;;
13356;SDS011;6747;56.456;-3.120;2024-02-21T01:06:07;9.07;;;2.35;;
13356;SDS011;6747;56.456;-3.120;2024-02-21T01:08:34;7.50;;;2.40;;
13356;SDS011;6747;56.456;-3.120;2024-02-21T01:11:02;7.68;;;2.38;;
13356;SDS011;6747;56.456;-3.120;2024-02-21T01:13:30;12.23;;;2.95;;
13356;SDS011;6747;56.456;-3.120;2024-02-21T01:15:59;8.70;;;2.70;;
13356;SDS011;6747;56.456;-3.120;2024-02-21T01:18:27;13.80;;;2.88;;
13356;SDS011;6747;56.456;-3.120;2024-02-21T01:20:55;12.05;;;2.92;;
13356;SDS011;6747;56.456;-3.120;2024-02-21T01:23:22;10.75;;;2.50;;
13356;SDS011;6747;56.456;-3.120;2024-02-21T01:25:50;6.85;;;2.70;;
13356;SDS011;6747;56.456;-3.120;2024-02-21T01:28:19;9.82;;;3.00;;
13356;SDS011;6747;56.456;-3.120;2024-02-21T01:30:47;9.93;;;2.40;;
13356;SDS011;6747;56.456;-3.120;2024-02-21T01:33:16;10.32;;;2.55;;
13356;SDS011;6747;56.456;-3.120;2024-02-21T01:35:44;14.98;;;3.50;;
13356;SDS011;6747;56.456;-3.120;2024-02-21T01:38:12;7.55;;;2.35;;
13356;SDS011;6747;56.456;-3.120;2024-02-21T01:40:40;9.32;;;2.40;;
13356;SDS011;6747;56.456;-3.120;2024-02-21T01:43:15;7.65;;;2.35;;
13356;SDS011;6747;56.456;-3.120;2024-02-21T01:45:43;9.52;;;2.40;;
13356;SDS011;6747;56.456;-3.120;2024-02-21T01:48:10;11.32;;;2.60;;
13356;SDS011;6747;56.456;-3.120;2024-02-21T01:50:40;10.80;;;2.65;;
13356;SDS011;6747;56.456;-3.120;2024-02-21T01:53:07;8.65;;;2.95;;
13356;SDS011;6747;56.456;-3.120;2024-02-21T01:55:35;11.27;;;2.65;;
13356;SDS011;6747;56.456;-3.120;2024-02-21T01:58:03;12.07;;;2.97;;
13356;SDS011;6747;56.456;-3.120;2024-02-21T02:00:31;8.35;;;2.40;;
13356;SDS011;6747;56.456;-3.120;2024-02-21T02:02:58;9.65;;;2.17;;
13356;SDS011;6747;56.456;-3.120;2024-02-21T02:05:26;6.82;;;2.35;;
13356;SDS011;6747;56.456;-3.120;2024-02-21T02:07:56;9.70;;;2.45;;
13356;SDS011;6747;56.456;-3.120;2024-02-21T02:10:23;15.25;;;2.65;;
13356;SDS011;6747;56.456;-3.120;2024-02-21T02:12:54;9.88;;;2.22;;
13356;SDS011;6747;56.456;-3.120;2024-02-21T02:15:22;5.38;;;1.98;;
13356;SDS011;6747;56.456;-3.120;2024-02-21T02:17:50;9.57;;;2.10;;
13356;SDS011;6747;56.456;-3.120;2024-02-21T02:20:18;12.25;;;3.00;;
13356;SDS011;6747;56.456;-3.120;2024-02-21T02:22:45;16.52;;;3.05;;
13356;SDS011;6747;56.456;-3.120;2024-02-21T02:25:15;12.57;;;2.75;;
13356;SDS011;6747;56.456;-3.120;2024-02-21T02:27:43;12.63;;;2.30;;
13356;SDS011;6747;56.456;-3.120;2024-02-21T02:30:11;12.00;;;2.72;;
13356;SDS011;6747;56.456;-3.120;2024-02-21T02:32:39;10.90;;;2.60;;
13356;SDS011;6747;56.456;-3.120;2024-02-21T02:35:07;9.23;;;2.78;;
13356;SDS011;6747;56.456;-3.120;2024-02-21T02:37:35;11.27;;;2.53;;
13356;SDS011;6747;56.456;-3.120;2024-02-21T02:40:04;11.55;;;2.80;;
13356;SDS011;6747;56.456;-3.120;2024-02-21T02:42:33;9.70;;;3.00;;
13356;SDS011;6747;56.456;-3.120;2024-02-21T02:45:01;8.18;;;2.50;;
13356;SDS011;6747;56.456;-3.120;2024-02-21T02:47:29;8.10;;;2.50;;
13356;SDS011;6747;56.456;-3.120;2024-02-21T02:49:56;6.63;;;2.08;;
13356;SDS011;6747;56.456;-3.120;2024-02-21T02:52:26;10.85;;;2.58;;
13356;SDS011;6747;56.456;-3.120;2024-02-21T02:54:55;10.35;;;2.90;;
13356;SDS011;6747;56.456;-3.120;2024-02-21T02:57:22;17.27;;;3.30;;
13356;SDS011;6747;56.456;-3.120;2024-02-21T02:59:51;10.27;;;2.65;;
13356;SDS011;6747;56.456;-3.120;2024-02-21T03:02:19;10.98;;;2.60;;
13356;SDS011;6747;56.456;-3.120;2024-02-21T03:04:47;14.32;;;2.60;;
13356;SDS011;6747;56.456;-3.120;2024-02-21T03:07:15;11.70;;;2.88;;
13356;SDS011;6747;56.456;-3.120;2024-02-21T03:09:42;9.02;;;2.20;;
13356;SDS011;6747;56.456;-3.120;2024-02-21T03:12:10;10.93;;;2.83;;
13356;SDS011;6747;56.456;-3.120;2024-02-21T03:14:38;11.40;;;2.67;;
13356;SDS011;6747;56.456;-3.120;2024-02-21T03:17:07;8.32;;;3.00;;
13356;SDS011;6747;56.456;-3.120;2024-02-21T03:19:34;7.43;;;2.67;;
13356;SDS011;6747;56.456;-3.120;2024-02-21T03:22:02;11.20;;;2.92;;
13356;SDS011;6747;56.456;-3.120;2024-02-21T03:24:31;6.75;;;2.10;;
13356;SDS011;6747;56.456;-3.120;2024-02-21T03:26:58;7.22;;;2.78;;
13356;SDS011;6747;56.456;-3.120;2024-02-21T03:29:27;12.15;;;2.58;;
13356;SDS011;6747;56.456;-3.120;2024-02-21T03:31:54;7.40;;;2.20;;
13356;SDS011;6747;56.456;-3.120;2024-02-21T03:34:24;11.60;;;2.67;;
13356;SDS011;6747;56.456;-3.120;2024-02-21T03:36:51;8.48;;;2.72;;
13356;SDS011;6747;56.456;-3.120;2024-02-21T03:39:19;10.35;;;2.55;;
13356;SDS011;6747;56.456;-3.120;2024-02-21T03:41:47;17.40;;;2.88;;
13356;SDS011;6747;56.456;-3.120;2024-02-21T03:44:14;9.95;;;2.95;;
13356;SDS011;6747;56.456;-3.120;2024-02-21T03:46:42;8.65;;;2.63;;
13356;SDS011;6747;56.456;-3.120;2024-02-21T03:49:10;6.95;;;2.58;;
13356;SDS011;6747;56.456;-3.120;2024-02-21T03:51:39;8.02;;;2.35;;
13356;SDS011;6747;56.456;-3.120;2024-02-21T03:54:06;10.98;;;2.70;;
13356;SDS011;6747;56.456;-3.120;2024-02-21T03:56:36;7.75;;;2.40;;
13356;SDS011;6747;56.456;-3.120;2024-02-21T03:59:05;8.05;;;2.40;;
13356;SDS011;6747;56.456;-3.120;2024-02-21T04:01:33;9.35;;;3.15;;
13356;SDS011;6747;56.456;-3.120;2024-02-21T04:04:00;11.45;;;2.97;;
13356;SDS011;6747;56.456;-3.120;2024-02-21T04:06:28;7.47;;;2.25;;
13356;SDS011;6747;56.456;-3.120;2024-02-21T04:08:58;12.00;;;2.53;;
13356;SDS011;6747;56.456;-3.120;2024-02-21T04:11:25;10.32;;;2.83;;
13356;SDS011;6747;56.456;-3.120;2024-02-21T04:13:53;10.82;;;2.72;;
13356;SDS011;6747;56.456;-3.120;2024-02-21T04:16:20;8.77;;;3.00;;
13356;SDS011;6747;56.456;-3.120;2024-02-21T04:18:48;8.23;;;2.47;;
13356;SDS011;6747;56.456;-3.120;2024-02-21T04:21:16;7.47;;;2.80;;
13356;SDS011;6747;56.456;-3.120;2024-02-21T04:23:44;18.75;;;3.05;;
13356;SDS011;6747;56.456;-3.120;2024-02-21T04:26:13;8.80;;;3.17;;
13356;SDS011;6747;56.456;-3.120;2024-02-21T04:28:40;11.73;;;2.78;;
13356;SDS011;6747;56.456;-3.120;2024-02-21T04:31:09;12.32;;;3.10;;
13356;SDS011;6747;56.456;-3.120;2024-02-21T04:33:37;11.68;;;2.70;;
13356;SDS011;6747;56.456;-3.120;2024-02-21T04:36:07;12.90;;;3.30;;
13356;SDS011;6747;56.456;-3.120;2024-02-21T04:38:35;9.77;;;2.40;;
13356;SDS011;6747;56.456;-3.120;2024-02-21T04:41:06;7.05;;;2.67;;
13356;SDS011;6747;56.456;-3.120;2024-02-21T04:43:36;10.23;;;2.50;;
13356;SDS011;6747;56.456;-3.120;2024-02-21T04:46:07;11.13;;;2.55;;
13356;SDS011;6747;56.456;-3.120;2024-02-21T04:48:38;8.95;;;2.70;;
13356;SDS011;6747;56.456;-3.120;2024-02-21T04:51:05;9.05;;;2.63;;
13356;SDS011;6747;56.456;-3.120;2024-02-21T04:53:33;8.85;;;2.83;;
13356;SDS011;6747;56.456;-3.120;2024-02-21T04:56:03;11.85;;;2.40;;
13356;SDS011;6747;56.456;-3.120;2024-02-21T04:58:32;10.30;;;3.15;;
13356;SDS011;6747;56.456;-3.120;2024-02-21T05:01:01;9.50;;;2.90;;
13356;SDS011;6747;56.456;-3.120;2024-02-21T05:03:28;13.85;;;3.25;;
13356;SDS011;6747;56.456;-3.120;2024-02-21T05:05:56;13.10;;;3.20;;
13356;SDS011;6747;56.456;-3.120;2024-02-21T05:08:24;8.02;;;2.72;;
13356;SDS011;6747;56.456;-3.120;2024-02-21T05:10:51;8.63;;;2.60;;
13356;SDS011;6747;56.456;-3.120;2024-02-21T05:13:19;12.32;;;3.20;;
13356;SDS011;6747;56.456;-3.120;2024-02-21T05:15:47;12.35;;;2.55;;
13356;SDS011;6747;56.456;-3.120;2024-02-21T05:18:17;12.45;;;3.28;;
13356;SDS011;6747;56.456;-3.120;2024-02-21T05:20:45;10.90;;;2.88;;
13356;SDS011;6747;56.456;-3.120;2024-02-21T05:23:13;11.35;;;2.67;;
13356;SDS011;6747;56.456;-3.120;2024-02-21T05:25:40;10.68;;;3.50;;
13356;SDS011;6747;56.456;-3.120;2024-02-21T05:28:08;10.18;;;2.83;;
13356;SDS011;6747;56.456;-3.120;2024-02-21T05:30:36;15.15;;;3.00;;
13356;SDS011;6747;56.456;-3.120;2024-02-21T05:33:08;9.18;;;2.80;;
13356;SDS011;6747;56.456;-3.120;2024-02-21T05:35:39;9.88;;;2.67;;
13356;SDS011;6747;56.456;-3.120;2024-02-21T05:38:08;8.65;;;2.58;;
13356;SDS011;6747;56.456;-3.120;2024-02-21T05:40:37;13.55;;;3.60;;
13356;SDS011;6747;56.456;-3.120;2024-02-21T05:43:09;10.45;;;3.05;;
13356;SDS011;6747;56.456;-3.120;2024-02-21T05:45:37;12.05;;;2.65;;
13356;SDS011;6747;56.456;-3.120;2024-02-21T05:48:07;14.10;;;3.38;;
13356;SDS011;6747;56.456;-3.120;2024-02-21T05:50:40;18.42;;;3.05;;
13356;SDS011;6747;56.456;-3.120;2024-02-21T05:53:07;5.25;;;2.35;;
13356;SDS011;6747;56.456;-3.120;2024-02-21T05:55:38;10.70;;;2.70;;
13356;SDS011;6747;56.456;-3.120;2024-02-21T05:58:06;12.05;;;2.83;;
13356;SDS011;6747;56.456;-3.120;2024-02-21T06:00:39;10.23;;;2.90;;
13356;SDS011;6747;56.456;-3.120;2024-02-21T06:03:06;8.43;;;3.10;;
13356;SDS011;6747;56.456;-3.120;2024-02-21T06:05:36;11.57;;;2.50;;
13356;SDS011;6747;56.456;-3.120;2024-02-21T06:08:08;12.98;;;3.22;;
13356;SDS011;6747;56.456;-3.120;2024-02-21T06:10:38;9.77;;;3.00;;
13356;SDS011;6747;56.456;-3.120;2024-02-21T06:13:06;8.63;;;2.70;;
13356;SDS011;6747;56.456;-3.120;2024-02-21T06:15:34;10.85;;;2.83;;
13356;SDS011;6747;56.456;-3.120;2024-02-21T06:18:02;5.25;;;2.65;;
13356;SDS011;6747;56.456;-3.120;2024-02-21T06:20:30;8.95;;;2.72;;
13356;SDS011;6747;56.456;-3.120;2024-02-21T06:22:57;12.48;;;3.17;;
13356;SDS011;6747;56.456;-3.120;2024-02-21T06:25:26;12.20;;;3.13;;
13356;SDS011;6747;56.456;-3.120;2024-02-21T06:27:54;12.50;;;3.47;;
13356;SDS011;6747;56.456;-3.120;2024-02-21T06:30:22;14.30;;;3.10;;
13356;SDS011;6747;56.456;-3.120;2024-02-21T06:32:49;8.98;;;2.53;;
13356;SDS011;6747;56.456;-3.120;2024-02-21T06:35:17;11.65;;;3.05;;
13356;SDS011;6747;56.456;-3.120;2024-02-21T06:37:44;15.65;;;2.70;;
13356;SDS011;6747;56.456;-3.120;2024-02-21T06:40:16;13.88;;;2.25;;
13356;SDS011;6747;56.456;-3.120;2024-02-21T06:42:45;8.60;;;2.40;;
13356;SDS011;6747;56.456;-3.120;2024-02-21T06:45:12;8.60;;;2.63;;
13356;SDS011;6747;56.456;-3.120;2024-02-21T06:47:40;11.43;;;2.33;;
13356;SDS011;6747;56.456;-3.120;2024-02-21T06:50:12;7.43;;;2.08;;
13356;SDS011;6747;56.456;-3.120;2024-02-21T06:52:40;9.10;;;2.67;;
13356;SDS011;6747;56.456;-3.120;2024-02-21T06:55:10;10.27;;;2.30;;
13356;SDS011;6747;56.456;-3.120;2024-02-21T06:57:40;10.35;;;2.72;;
13356;SDS011;6747;56.456;-3.120;2024-02-21T07:00:13;8.82;;;3.10;;
13356;SDS011;6747;56.456;-3.120;2024-02-21T07:02:41;7.57;;;2.33;;
13356;SDS011;6747;56.456;-3.120;2024-02-21T07:05:14;8.43;;;2.50;;
13356;SDS011;6747;56.456;-3.120;2024-02-21T07:07:41;10.68;;;2.40;;
13356;SDS011;6747;56.456;-3.120;2024-02-21T07:10:12;5.55;;;2.15;;
13356;SDS011;6747;56.456;-3.120;2024-02-21T07:12:44;9.68;;;2.30;;
13356;SDS011;6747;56.456;-3.120;2024-02-21T07:15:13;7.63;;;1.85;;
13356;SDS011;6747;56.456;-3.120;2024-02-21T07:17:41;12.15;;;2.50;;
13356;SDS011;6747;56.456;-3.120;2024-02-21T07:20:11;7.50;;;2.20;;
13356;SDS011;6747;56.456;-3.120;2024-02-21T07:22:40;9.23;;;2.10;;
13356;SDS011;6747;56.456;-3.120;2024-02-21T07:25:08;7.10;;;2.03;;
13356;SDS011;6747;56.456;-3.120;2024-02-21T07:27:36;7.10;;;2.00;;
13356;SDS011;6747;56.456;-3.120;2024-02-21T07:30:05;12.15;;;2.55;;
13356;SDS011;6747;56.456;-3.120;2024-02-21T07:32:34;9.07;;;2.53;;
13356;SDS011;6747;56.456;-3.120;2024-02-21T07:35:02;7.70;;;2.33;;
13356;SDS011;6747;56.456;-3.120;2024-02-21T07:37:30;9.80;;;2.25;;
13356;SDS011;6747;56.456;-3.120;2024-02-21T07:39:58;5.22;;;1.90;;
13356;SDS011;6747;56.456;-3.120;2024-02-21T07:42:25;7.07;;;2.22;;
13356;SDS011;6747;56.456;-3.120;2024-02-21T07:44:53;10.00;;;2.28;;
13356;SDS011;6747;56.456;-3.120;2024-02-21T07:47:22;7.07;;;2.03;;
13356;SDS011;6747;56.456;-3.120;2024-02-21T07:49:51;10.65;;;2.38;;
13356;SDS011;6747;56.456;-3.120;2024-02-21T07:52:18;7.07;;;2.53;;
13356;SDS011;6747;56.456;-3.120;2024-02-21T07:54:46;7.65;;;2.00;;
13356;SDS011;6747;56.456;-3.120;2024-02-21T07:57:14;6.38;;;2.58;;
13356;SDS011;6747;56.456;-3.120;2024-02-21T07:59:41;12.45;;;3.00;;
13356;SDS011;6747;56.456;-3.120;2024-02-21T08:02:09;9.45;;;2.90;;
13356;SDS011;6747;56.456;-3.120;2024-02-21T08:04:37;11.93;;;3.00;;
13356;SDS011;6747;56.456;-3.120;2024-02-21T08:07:06;10.57;;;2.63;;
13356;SDS011;6747;56.456;-3.120;2024-02-21T08:09:33;12.55;;;2.65;;
13356;SDS011;6747;56.456;-3.120;2024-02-21T08:12:03;7.75;;;2.60;;
13356;SDS011;6747;56.456;-3.120;2024-02-21T08:14:30;7.82;;;2.17;;
13356;SDS011;6747;56.456;-3.120;2024-02-21T08:16:58;6.68;;;2.22;;
13356;SDS011;6747;56.456;-3.120;2024-02-21T08:19:25;6.90;;;2.47;;
13356;SDS011;6747;56.456;-3.120;2024-02-21T08:21:53;11.60;;;2.78;;
13356;SDS011;6747;56.456;-3.120;2024-02-21T08:24:22;8.20;;;2.20;;
13356;SDS011;6747;56.456;-3.120;2024-02-21T08:26:52;9.95;;;2.25;;
13356;SDS011;6747;56.456;-3.120;2024-02-21T08:29:20;5.25;;;1.80;;
13356;SDS011;6747;56.456;-3.120;2024-02-21T08:31:48;6.18;;;1.80;;
13356;SDS011;6747;56.456;-3.120;2024-02-21T08:34:16;9.90;;;2.13;;
13356;SDS011;6747;56.456;-3.120;2024-02-21T08:36:44;11.55;;;2.75;;
13356;SDS011;6747;56.456;-3.120;2024-02-21T08:39:11;7.63;;;2.38;;
13356;SDS011;6747;56.456;-3.120;2024-02-21T08:41:43;9.02;;;2.05;;
13356;SDS011;6747;56.456;-3.120;2024-02-21T08:44:11;5.47;;;1.60;;
13356;SDS011;6747;56.456;-3.120;2024-02-21T08:46:39;4.70;;;1.85;;
13356;SDS011;6747;56.456;-3.120;2024-02-21T08:49:07;5.35;;;2.13;;
13356;SDS011;6747;56.456;-3.120;2024-02-21T08:51:34;6.15;;;1.65;;
13356;SDS011;6747;56.456;-3.120;2024-02-21T08:54:02;9.23;;;2.17;;
13356;SDS011;6747;56.456;-3.120;2024-02-21T08:56:31;6.50;;;1.95;;
13356;SDS011;6747;56.456;-3.120;2024-02-21T08:59:00;6.45;;;2.33;;
13356;SDS011;6747;56.456;-3.120;2024-02-21T09:01:29;6.70;;;2.05;;
13356;SDS011;6747;56.456;-3.120;2024-02-21T09:03:56;5.28;;;2.03;;
13356;SDS011;6747;56.456;-3.120;2024-02-21T09:06:24;5.55;;;1.70;;
13356;SDS011;6747;56.456;-3.120;2024-02-21T09:08:53;6.65;;;2.25;;
13356;SDS011;6747;56.456;-3.120;2024-02-21T09:11:21;7.43;;;2.58;;
13356;SDS011;6747;56.456;-3.120;2024-02-21T09:13:54;6.50;;;2.20;;
13356;SDS011;6747;56.456;-3.120;2024-02-21T09:16:30;7.40;;;1.60;;
13356;SDS011;6747;56.456;-3.120;2024-02-21T09:18:58;6.38;;;1.90;;
13356;SDS011;6747;56.456;-3.120;2024-02-21T09:21:27;3.33;;;1.90;;
13356;SDS011;6747;56.456;-3.120;2024-02-21T09:23:55;8.38;;;1.80;;
13356;SDS011;6747;56.456;-3.120;2024-02-21T09:26:23;7.32;;;1.90;;
13356;SDS011;6747;56.456;-3.120;2024-02-21T09:28:54;6.75;;;1.60;;
13356;SDS011;6747;56.456;-3.120;2024-02-21T09:31:25;5.15;;;1.60;;
13356;SDS011;6747;56.456;-3.120;2024-02-21T09:33:54;3.75;;;1.73;;
13356;SDS011;6747;56.456;-3.120;2024-02-21T09:36:22;4.10;;;1.50;;
13356;SDS011;6747;56.456;-3.120;2024-02-21T09:38:52;5.25;;;1.58;;
13356;SDS011;6747;56.456;-3.120;2024-02-21T09:41:25;2.50;;;1.65;;
13356;SDS011;6747;56.456;-3.120;2024-02-21T09:43:53;6.03;;;2.45;;
13356;SDS011;6747;56.456;-3.120;2024-02-21T09:46:24;3.67;;;1.60;;
13356;SDS011;6747;56.456;-3.120;2024-02-21T09:49:02;7.05;;;1.95;;
13356;SDS011;6747;56.456;-3.120;2024-02-21T09:51:32;6.35;;;2.20;;
13356;SDS011;6747;56.456;-3.120;2024-02-21T09:54:01;3.63;;;1.83;;
13356;SDS011;6747;56.456;-3.120;2024-02-21T09:56:31;3.38;;;1.42;;
13356;SDS011;6747;56.456;-3.120;2024-02-21T09:58:59;3.80;;;2.00;;
13356;SDS011;6747;56.456;-3.120;2024-02-21T10:01:30;3.75;;;1.70;;
13356;SDS011;6747;56.456;-3.120;2024-02-21T10:03:58;3.10;;;1.75;;
13356;SDS011;6747;56.456;-3.120;2024-02-21T10:06:27;3.85;;;1.75;;
13356;SDS011;6747;56.456;-3.120;2024-02-21T10:08:54;5.13;;;2.00;;
13356;SDS011;6747;56.456;-3.120;2024-02-21T10:11:22;6.47;;;2.30;;
13356;SDS011;6747;56.456;-3.120;2024-02-21T10:13:51;5.25;;;2.40;;
13356;SDS011;6747;56.456;-3.120;2024-02-21T10:16:21;8.57;;;2.33;;
13356;SDS011;6747;56.456;-3.120;2024-02-21T10:18:53;3.75;;;1.98;;
13356;SDS011;6747;56.456;-3.120;2024-02-21T10:21:21;6.20;;;2.38;;
13356;SDS011;6747;56.456;-3.120;2024-02-21T10:23:52;4.38;;;2.15;;
13356;SDS011;6747;56.456;-3.120;2024-02-21T10:26:22;3.38;;;2.05;;
13356;SDS011;6747;56.456;-3.120;2024-02-21T10:28:53;3.97;;;2.10;;
13356;SDS011;6747;56.456;-3.120;2024-02-21T10:31:22;5.32;;;2.10;;
13356;SDS011;6747;56.456;-3.120;2024-02-21T10:33:56;3.40;;;2.30;;
13356;SDS011;6747;56.456;-3.120;2024-02-21T10:36:24;4.95;;;2.22;;
13356;SDS011;6747;56.456;-3.120;2024-02-21T10:38:53;5.82;;;2.03;;
13356;SDS011;6747;56.456;-3.120;2024-02-21T10:41:29;3.20;;;2.00;;
13356;SDS011;6747;56.456;-3.120;2024-02-21T10:44:08;5.85;;;2.30;;
13356;SDS011;6747;56.456;-3.120;2024-02-21T10:46:53;2.42;;;1.70;;
13356;SDS011;6747;56.456;-3.120;2024-02-21T10:49:28;3.60;;;2.13;;
13356;SDS011;6747;56.456;-3.120;2024-02-21T10:52:01;2.78;;;1.70;;
13356;SDS011;6747;56.456;-3.120;2024-02-21T10:54:39;3.50;;;1.90;;
13356;SDS011;6747;56.456;-3.120;2024-02-21T10:57:07;2.00;;;1.45;;
13356;SDS011;6747;56.456;-3.120;2024-02-21T10:59:37;3.88;;;1.45;;
13356;SDS011;6747;56.456;-3.120;2024-02-21T11:02:04;2.30;;;1.50;;
13356;SDS011;6747;56.456;-3.120;2024-02-21T11:04:34;1.52;;;1.05;;
13356;SDS011;6747;56.456;-3.120;2024-02-21T11:07:05;1.20;;;1.10;;
13356;SDS011;6747;56.456;-3.120;2024-02-21T11:09:33;1.88;;;0.80;;
13356;SDS011;6747;56.456;-3.120;2024-02-21T11:12:04;0.90;;;0.68;;
13356;SDS011;6747;56.456;-3.120;2024-02-21T11:14:43;2.00;;;0.95;;
13356;SDS011;6747;56.456;-3.120;2024-02-21T11:17:16;2.05;;;0.80;;
13356;SDS011;6747;56.456;-3.120;2024-02-21T11:19:46;0.82;;;0.60;;
13356;SDS011;6747;56.456;-3.120;2024-02-21T11:22:18;1.15;;;0.55;;
13356;SDS011;6747;56.456;-3.120;2024-02-21T11:24:54;1.20;;;0.50;;
13356;SDS011;6747;56.456;-3.120;2024-02-21T11:27:25;0.38;;;0.35;;
13356;SDS011;6747;56.456;-3.120;2024-02-21T11:29:54;0.20;;;0.20;;
13356;SDS011;6747;56.456;-3.120;2024-02-21T11:32:22;0.30;;;0.30;;
13356;SDS011;6747;56.456;-3.120;2024-02-21T11:34:54;1.27;;;0.30;;
13356;SDS011;6747;56.456;-3.120;2024-02-21T11:37:23;0.68;;;0.30;;
13356;SDS011;6747;56.456;-3.120;2024-02-21T11:39:52;0.73;;;0.30;;
13356;SDS011;6747;56.456;-3.120;2024-02-21T11:42:20;1.17;;;0.57;;
13356;SDS011;6747;56.456;-3.120;2024-02-21T11:44:49;0.68;;;0.30;;
13356;SDS011;6747;56.456;-3.120;2024-02-21T11:47:18;0.38;;;0.25;;
13356;SDS011;6747;56.456;-3.120;2024-02-21T11:49:46;0.45;;;0.40;;
13356;SDS011;6747;56.456;-3.120;2024-02-21T11:52:15;0.32;;;0.32;;
13356;SDS011;6747;56.456;-3.120;2024-02-21T11:54:44;1.05;;;0.40;;
13356;SDS011;6747;56.456;-3.120;2024-02-21T11:57:11;0.32;;;0.20;;
13356;SDS011;6747;56.456;-3.120;2024-02-21T11:59:39;0.65;;;0.38;;
13356;SDS011;6747;56.456;-3.120;2024-02-21T12:02:10;0.65;;;0.30;;
13356;SDS011;6747;56.456;-3.120;2024-02-21T12:04:37;0.40;;;0.40;;
13356;SDS011;6747;56.456;-3.120;2024-02-21T12:07:05;2.25;;;0.40;;
13356;SDS011;6747;56.456;-3.120;2024-02-21T12:09:33;0.45;;;0.45;;
13356;SDS011;6747;56.456;-3.120;2024-02-21T12:12:01;0.30;;;0.30;;
13356;SDS011;6747;56.456;-3.120;2024-02-21T12:14:33;0.90;;;0.50;;
13356;SDS011;6747;56.456;-3.120;2024-02-21T12:17:02;0.32;;;0.30;;
13356;SDS011;6747;56.456;-3.120;2024-02-21T12:19:36;0.20;;;0.20;;
13356;SDS011;6747;56.456;-3.120;2024-02-21T12:22:10;1.27;;;0.25;;
13356;SDS011;6747;56.456;-3.120;2024-02-21T12:24:43;0.30;;;0.30;;
13356;SDS011;6747;56.456;-3.120;2024-02-21T12:27:13;0.25;;;0.25;;
13356;SDS011;6747;56.456;-3.120;2024-02-21T12:29:46;0.43;;;0.30;;
13356;SDS011;6747;56.456;-3.120;2024-02-21T12:32:20;0.20;;;0.20;;
13356;SDS011;6747;56.456;-3.120;2024-02-21T12:34:55;0.38;;;0.38;;
13356;SDS011;6747;56.456;-3.120;2024-02-21T12:37:23;0.30;;;0.30;;
13356;SDS011;6747;56.456;-3.120;2024-02-21T12:39:54;0.40;;;0.40;;
13356;SDS011;6747;56.456;-3.120;2024-02-21T12:42:22;0.57;;;0.57;;
13356;SDS011;6747;56.456;-3.120;2024-02-21T12:44:51;0.77;;;0.68;;
13356;SDS011;6747;56.456;-3.120;2024-02-21T12:47:18;0.25;;;0.25;;
13356;SDS011;6747;56.456;-3.120;2024-02-21T12:49:49;0.80;;;0.30;;
13356;SDS011;6747;56.456;-3.120;2024-02-21T12:52:18;0.30;;;0.30;;
13356;SDS011;6747;56.456;-3.120;2024-02-21T12:54:46;0.25;;;0.25;;
13356;SDS011;6747;56.456;-3.120;2024-02-21T12:57:14;0.30;;;0.30;;
13356;SDS011;6747;56.456;-3.120;2024-02-21T12:59:41;0.20;;;0.20;;
13356;SDS011;6747;56.456;-3.120;2024-02-21T13:02:09;0.40;;;0.40;;
13356;SDS011;6747;56.456;-3.120;2024-02-21T13:04:37;0.17;;;0.17;;
13356;SDS011;6747;56.456;-3.120;2024-02-21T13:07:06;1.65;;;0.32;;
13356;SDS011;6747;56.456;-3.120;2024-02-21T13:09:36;0.10;;;0.10;;
13356;SDS011;6747;56.456;-3.120;2024-02-21T13:12:04;0.70;;;0.20;;
13356;SDS011;6747;56.456;-3.120;2024-02-21T13:14:32;0.17;;;0.17;;
13356;SDS011;6747;56.456;-3.120;2024-02-21T13:17:07;1.00;;;0.10;;
13356;SDS011;6747;56.456;-3.120;2024-02-21T13:19:34;0.10;;;0.10;;
13356;SDS011;6747;56.456;-3.120;2024-02-21T13:22:02;0.25;;;0.25;;
13356;SDS011;6747;56.456;-3.120;2024-02-21T13:24:31;2.60;;;0.50;;
13356;SDS011;6747;56.456;-3.120;2024-02-21T13:27:05;0.20;;;0.20;;
13356;SDS011;6747;56.456;-3.120;2024-02-21T13:29:32;0.22;;;0.22;;
13356;SDS011;6747;56.456;-3.120;2024-02-21T13:32:03;0.20;;;0.20;;
13356;SDS011;6747;56.456;-3.120;2024-02-21T13:34:31;0.80;;;0.30;;
13356;SDS011;6747;56.456;-3.120;2024-02-21T13:36:59;0.40;;;0.40;;
13356;SDS011;6747;56.456;-3.120;2024-02-21T13:39:27;0.38;;;0.38;;
13356;SDS011;6747;56.456;-3.120;2024-02-21T13:41:55;0.40;;;0.40;;
13356;SDS011;6747;56.456;-3.120;2024-02-21T13:44:25;0.30;;;0.30;;
13356;SDS011;6747;56.456;-3.120;2024-02-21T13:46:53;0.40;;;0.40;;
13356;SDS011;6747;56.456;-3.120;2024-02-21T13:49:21;0.38;;;0.38;;
13356;SDS011;6747;56.456;-3.120;2024-02-21T13:51:48;0.30;;;0.30;;
13356;SDS011;6747;56.456;-3.120;2024-02-21T13:54:16;0.30;;;0.30;;
13356;SDS011;6747;56.456;-3.120;2024-02-21T13:56:44;0.60;;;0.20;;
13356;SDS011;6747;56.456;-3.120;2024-02-21T13:59:12;0.20;;;0.20;;
13356;SDS011;6747;56.456;-3.120;2024-02-21T14:01:42;0.20;;;0.20;;
13356;SDS011;6747;56.456;-3.120;2024-02-21T14:04:09;0.10;;;0.10;;
13356;SDS011;6747;56.456;-3.120;2024-02-21T14:06:46;0.55;;;0.17;;
13356;SDS011;6747;56.456;-3.120;2024-02-21T14:09:14;0.10;;;0.10;;
13356;SDS011;6747;56.456;-3.120;2024-02-21T14:11:41;0.10;;;0.10;;
13356;SDS011;6747;56.456;-3.120;2024-02-21T14:14:10;0.38;;;0.13;;
13356;SDS011;6747;56.456;-3.120;2024-02-21T14:16:40;0.80;;;0.20;;
13356;SDS011;6747;56.456;-3.120;2024-02-21T14:19:08;0.20;;;0.20;;
13356;SDS011;6747;56.456;-3.120;2024-02-21T14:21:37;1.02;;;0.20;;
13356;SDS011;6747;56.456;-3.120;2024-02-21T14:24:05;0.20;;;0.20;;
13356;SDS011;6747;56.456;-3.120;2024-02-21T14:26:35;0.13;;;0.13;;
13356;SDS011;6747;56.456;-3.120;2024-02-21T14:29:06;0.28;;;0.28;;
13356;SDS011;6747;56.456;-3.120;2024-02-21T14:31:37;1.35;;;0.40;;
13356;SDS011;6747;56.456;-3.120;2024-02-21T14:34:16;0.13;;;0.10;;
13356;SDS011;6747;56.456;-3.120;2024-02-21T14:37:00;0.52;;;0.20;;
13356;SDS011;6747;56.456;-3.120;2024-02-21T14:39:52;0.40;;;0.15;;
13356;SDS011;6747;56.456;-3.120;2024-02-21T14:42:21;1.25;;;0.30;;
13356;SDS011;6747;56.456;-3.120;2024-02-21T14:44:52;0.20;;;0.20;;
13356;SDS011;6747;56.456;-3.120;2024-02-21T14:47:37;0.88;;;0.20;;
13356;SDS011;6747;56.456;-3.120;2024-02-21T14:50:11;0.35;;;0.30;;
13356;SDS011;6747;56.456;-3.120;2024-02-21T14:52:41;0.10;;;0.10;;
13356;SDS011;6747;56.456;-3.120;2024-02-21T14:55:13;0.20;;;0.20;;